createdAt,value
2023-06-28T00:00:26.345Z,1.09
2023-06-28T00:01:26.459Z,1.04
2023-06-28T00:02:26.418Z,1.05
2023-06-28T00:03:26.547Z,1.00
2023-06-28T00:04:26.521Z,0.99
2023-06-28T00:05:26.606Z,1.01
2023-06-28T00:06:26.594Z,1.03
2023-06-28T00:07:26.701Z,1.12
2023-06-28T00:08:26.646Z,1.10
2023-06-28T00:09:26.676Z,1.12
2023-06-28T00:10:26.685Z,1.18
2023-06-28T00:11:26.652Z,1.19
2023-06-28T00:12:26.657Z,1.27
2023-06-28T00:13:26.728Z,1.31
2023-06-28T00:14:26.666Z,1.35
2023-06-28T00:15:26.730Z,1.39
2023-06-28T00:16:26.745Z,1.53
2023-06-28T00:17:26.777Z,1.55
2023-06-28T00:18:26.781Z,1.64
2023-06-28T00:19:26.800Z,1.72
2023-06-28T00:20:26.817Z,1.80
2023-06-28T00:21:26.886Z,1.80
2023-06-28T00:22:26.851Z,1.76
2023-06-28T00:23:26.949Z,1.81
2023-06-28T00:24:26.935Z,1.83
2023-06-28T00:25:26.965Z,1.81
2023-06-28T00:26:26.988Z,1.78
2023-06-28T00:27:27.002Z,1.82
2023-06-28T00:28:27.064Z,1.80
2023-06-28T00:29:27.101Z,1.79
2023-06-28T00:30:27.147Z,1.85
2023-06-28T00:31:27.226Z,1.90
2023-06-28T00:32:27.288Z,1.85
2023-06-28T00:33:27.185Z,1.88
2023-06-28T00:34:27.225Z,1.87
2023-06-28T00:35:27.289Z,1.88
2023-06-28T00:36:27.360Z,1.93
2023-06-28T00:37:27.392Z,1.82
2023-06-28T00:38:27.370Z,1.87
2023-06-28T00:39:27.369Z,1.77
2023-06-28T00:40:27.414Z,1.79
2023-06-28T00:41:27.411Z,1.83
2023-06-28T00:42:27.438Z,1.83
2023-06-28T00:43:27.419Z,1.77
2023-06-28T00:44:27.414Z,1.72
2023-06-28T00:45:27.444Z,1.70
2023-06-28T00:46:27.480Z,1.67
2023-06-28T00:47:27.556Z,1.63
2023-06-28T00:48:27.598Z,1.62
2023-06-28T00:49:27.662Z,1.63
2023-06-28T00:50:27.744Z,1.61
2023-06-28T00:51:27.758Z,1.59
2023-06-28T00:52:27.805Z,1.60
2023-06-28T00:53:27.908Z,1.56
2023-06-28T00:54:27.851Z,1.49
2023-06-28T00:55:27.826Z,1.52
2023-06-28T00:56:27.847Z,1.52
2023-06-28T00:57:27.894Z,1.53
2023-06-28T00:58:27.949Z,1.55
2023-06-28T00:59:28.019Z,1.54
2023-06-28T01:00:28.099Z,1.63
2023-06-28T01:01:28.118Z,1.65
2023-06-28T01:02:28.246Z,1.77
2023-06-28T01:03:28.388Z,1.83
2023-06-28T01:04:28.261Z,1.80
2023-06-28T01:05:28.350Z,1.85
2023-06-28T01:06:28.534Z,1.90
2023-06-28T01:07:28.487Z,1.97
2023-06-28T01:08:28.515Z,1.99
2023-06-28T01:09:28.500Z,2.04
2023-06-28T01:10:28.519Z,2.14
2023-06-28T01:11:28.538Z,2.10
2023-06-28T01:12:28.545Z,2.13
2023-06-28T01:13:28.533Z,2.14
2023-06-28T01:14:28.553Z,2.13
2023-06-28T01:15:28.583Z,2.11
2023-06-28T01:16:28.633Z,2.26
2023-06-28T01:17:28.739Z,2.19
2023-06-28T01:18:28.758Z,2.20
2023-06-28T01:19:28.803Z,2.21
2023-06-28T01:20:28.860Z,2.19
2023-06-28T01:21:28.909Z,2.26
2023-06-28T01:22:28.947Z,2.24
2023-06-28T01:23:29.043Z,2.16
2023-06-28T01:24:28.939Z,2.16
2023-06-28T01:25:28.947Z,2.21
2023-06-28T01:26:28.972Z,2.22
2023-06-28T01:27:28.988Z,2.17
2023-06-28T01:28:29.019Z,2.28
2023-06-28T01:29:29.002Z,2.30
2023-06-28T01:30:29.001Z,2.32
2023-06-28T01:31:29.125Z,2.28
2023-06-28T01:32:29.080Z,2.19
2023-06-28T01:33:29.245Z,2.16
2023-06-28T01:34:29.060Z,2.11
2023-06-28T01:35:29.132Z,2.12
2023-06-28T01:36:29.209Z,2.09
2023-06-28T01:37:29.265Z,2.09
2023-06-28T01:38:29.277Z,2.04
2023-06-28T01:39:29.288Z,1.99
2023-06-28T01:40:29.298Z,1.93
2023-06-28T01:41:29.330Z,1.86
2023-06-28T01:42:29.327Z,1.83
2023-06-28T01:43:29.344Z,1.75
2023-06-28T01:44:29.390Z,1.77
2023-06-28T01:45:29.488Z,1.64
2023-06-28T01:46:29.611Z,1.60
2023-06-28T01:47:29.659Z,1.58
2023-06-28T01:48:29.728Z,1.68
2023-06-28T01:49:29.704Z,1.79
2023-06-28T01:50:29.768Z,1.83
2023-06-28T01:51:29.740Z,1.94
2023-06-28T01:52:29.771Z,2.03
2023-06-28T01:53:29.776Z,2.07
2023-06-28T01:54:29.841Z,2.12
2023-06-28T01:55:29.909Z,2.24
2023-06-28T01:56:29.977Z,2.22
2023-06-28T01:57:30.031Z,2.33
2023-06-28T01:58:30.100Z,2.35
2023-06-28T01:59:30.120Z,2.48
2023-06-28T02:00:30.226Z,2.54
2023-06-28T02:01:30.353Z,2.56
2023-06-28T02:02:30.385Z,2.60
2023-06-28T02:03:30.452Z,2.64
2023-06-28T02:04:30.440Z,2.67
2023-06-28T02:05:30.531Z,2.68
2023-06-28T02:06:30.540Z,2.71
2023-06-28T02:07:30.690Z,2.76
2023-06-28T02:08:30.585Z,2.63
2023-06-28T02:09:30.615Z,2.68
2023-06-28T02:10:30.660Z,2.64
2023-06-28T02:11:30.742Z,2.65
2023-06-28T02:12:30.765Z,2.60
2023-06-28T02:13:30.837Z,2.50
2023-06-28T02:14:30.880Z,2.50
2023-06-28T02:15:31.009Z,2.42
2023-06-28T02:16:31.086Z,2.44
2023-06-28T02:17:31.137Z,2.30
2023-06-28T02:18:31.161Z,2.23
2023-06-28T02:19:31.212Z,2.12
2023-06-28T02:20:31.235Z,2.07
2023-06-28T02:21:31.249Z,2.02
2023-06-28T02:22:31.240Z,1.93
2023-06-28T02:23:31.258Z,1.89
2023-06-28T02:24:31.312Z,1.91
2023-06-28T02:25:31.365Z,1.80
2023-06-28T02:26:31.408Z,1.76
2023-06-28T02:27:31.460Z,1.78
2023-06-28T02:28:32.069Z,1.83
2023-06-28T02:29:31.498Z,1.82
2023-06-28T02:30:31.540Z,1.73
2023-06-28T02:31:31.652Z,1.66
2023-06-28T02:32:31.629Z,1.66
2023-06-28T02:33:31.661Z,1.69
2023-06-28T02:34:31.635Z,1.62
2023-06-28T02:35:31.661Z,1.59
2023-06-28T02:36:31.695Z,1.58
2023-06-28T02:37:31.696Z,1.59
2023-06-28T02:38:31.723Z,1.58
2023-06-28T02:39:31.785Z,1.61
2023-06-28T02:40:31.809Z,1.58
2023-06-28T02:41:31.850Z,1.59
2023-06-28T02:42:31.887Z,1.59
2023-06-28T02:43:31.917Z,1.63
2023-06-28T02:44:31.931Z,1.68
2023-06-28T02:45:31.971Z,1.80
2023-06-28T02:46:32.005Z,1.81
2023-06-28T02:47:32.081Z,1.88
2023-06-28T02:48:32.078Z,1.90
2023-06-28T02:49:32.124Z,1.85
2023-06-28T02:50:32.171Z,1.85
2023-06-28T02:51:32.186Z,1.79
2023-06-28T02:52:32.211Z,1.77
2023-06-28T02:53:32.285Z,1.80
2023-06-28T02:54:32.263Z,1.69
2023-06-28T02:55:32.300Z,1.60
2023-06-28T02:56:32.338Z,1.56
2023-06-28T02:57:32.355Z,1.49
2023-06-28T02:58:32.366Z,1.37
2023-06-28T02:59:32.434Z,1.27
2023-06-28T03:00:32.434Z,1.19
2023-06-28T03:01:32.541Z,1.16
2023-06-28T03:02:32.517Z,1.12
2023-06-28T03:03:32.573Z,1.07
2023-06-28T03:04:32.589Z,1.00
2023-06-28T03:05:32.598Z,0.98
2023-06-28T03:06:32.597Z,0.93
2023-06-28T03:07:32.689Z,0.88
2023-06-28T03:08:32.665Z,0.86
2023-06-28T03:09:32.733Z,0.88
2023-06-28T03:10:32.785Z,0.86
2023-06-28T03:11:32.791Z,0.90
2023-06-28T03:12:32.856Z,0.84
2023-06-28T03:13:32.890Z,0.82
2023-06-28T03:14:32.871Z,0.85
2023-06-28T03:15:32.965Z,0.83
2023-06-28T03:16:32.975Z,0.85
2023-06-28T03:17:33.095Z,0.87
2023-06-28T03:18:33.049Z,0.85
2023-06-28T03:19:33.075Z,0.84
2023-06-28T03:20:33.132Z,0.87
2023-06-28T03:21:33.141Z,0.90
2023-06-28T03:22:33.172Z,0.87
2023-06-28T03:23:33.190Z,0.91
2023-06-28T03:24:33.330Z,0.89
2023-06-28T03:25:33.295Z,0.88
2023-06-28T03:26:33.299Z,0.88
2023-06-28T03:27:33.316Z,0.88
2023-06-28T03:28:33.338Z,0.90
2023-06-28T03:29:33.325Z,0.94
2023-06-28T03:30:33.374Z,0.98
2023-06-28T03:31:33.452Z,1.02
2023-06-28T03:32:33.516Z,1.02
2023-06-28T03:33:33.504Z,1.03
2023-06-28T03:34:33.545Z,1.08
2023-06-28T03:35:33.570Z,1.09
2023-06-28T03:36:33.597Z,1.16
2023-06-28T03:37:33.649Z,1.16
2023-06-28T03:38:33.629Z,1.17
2023-06-28T03:39:33.607Z,1.20
2023-06-28T03:40:33.660Z,1.25
2023-06-28T03:41:33.679Z,1.24
2023-06-28T03:42:33.721Z,1.28
2023-06-28T03:43:33.776Z,1.34
2023-06-28T03:44:33.754Z,1.32
2023-06-28T03:45:33.783Z,1.38
2023-06-28T03:46:33.912Z,1.45
2023-06-28T03:47:33.889Z,1.48
2023-06-28T03:48:33.811Z,1.49
2023-06-28T03:49:33.758Z,1.55
2023-06-28T03:50:33.776Z,1.55
2023-06-28T03:51:33.805Z,1.65
2023-06-28T03:52:33.815Z,1.69
2023-06-28T03:53:34.139Z,1.75
2023-06-28T03:54:33.840Z,1.75
2023-06-28T03:55:33.816Z,1.79
2023-06-28T03:56:33.868Z,1.77
2023-06-28T03:57:33.844Z,1.73
2023-06-28T03:58:33.874Z,1.74
2023-06-28T03:59:33.931Z,1.78
2023-06-28T04:00:33.973Z,1.79
2023-06-28T04:01:33.985Z,1.80
2023-06-28T04:02:34.030Z,1.89
2023-06-28T04:03:34.113Z,2.02
2023-06-28T04:04:34.029Z,2.00
2023-06-28T04:05:34.011Z,2.00
2023-06-28T04:06:34.057Z,2.07
2023-06-28T04:07:34.117Z,1.96
2023-06-28T04:08:34.110Z,2.03
2023-06-28T04:09:34.133Z,2.08
2023-06-28T04:10:34.145Z,2.11
2023-06-28T04:11:34.154Z,2.10
2023-06-28T04:12:34.133Z,2.16
2023-06-28T04:13:34.153Z,2.12
2023-06-28T04:14:36.522Z,2.26
2023-06-28T04:15:34.320Z,2.27
2023-06-28T04:16:34.328Z,2.35
2023-06-28T04:17:34.376Z,2.33
2023-06-28T04:18:34.314Z,2.30
2023-06-28T04:19:34.303Z,2.39
2023-06-28T04:20:34.318Z,2.38
2023-06-28T04:21:34.301Z,2.39
2023-06-28T04:22:34.299Z,2.42
2023-06-28T04:23:34.327Z,2.42
2023-06-28T04:24:34.326Z,2.48
2023-06-28T04:25:34.342Z,2.51
2023-06-28T04:26:34.335Z,2.50
2023-06-28T04:27:34.335Z,2.51
2023-06-28T04:28:34.346Z,2.60
2023-06-28T04:29:34.387Z,2.69
2023-06-28T04:30:34.345Z,2.74
2023-06-28T04:31:34.340Z,2.75
2023-06-28T04:32:34.445Z,2.79
2023-06-28T04:33:34.390Z,2.91
2023-06-28T04:34:34.411Z,2.80
2023-06-28T04:35:34.445Z,2.81
2023-06-28T04:36:34.504Z,2.88
2023-06-28T04:37:34.549Z,3.03
2023-06-28T04:38:34.546Z,3.03
2023-06-28T04:39:34.556Z,3.02
2023-06-28T04:40:34.564Z,3.04
2023-06-28T04:41:34.597Z,3.14
2023-06-28T04:42:34.627Z,3.14
2023-06-28T04:43:34.614Z,3.21
2023-06-28T04:44:34.621Z,3.25
2023-06-28T04:45:34.648Z,3.22
2023-06-28T04:46:34.604Z,3.20
2023-06-28T04:47:34.643Z,3.30
2023-06-28T04:48:34.644Z,3.35
2023-06-28T04:49:34.603Z,3.39
2023-06-28T04:50:34.636Z,3.54
2023-06-28T04:51:34.632Z,3.41
2023-06-28T04:52:34.632Z,3.37
2023-06-28T04:53:34.644Z,3.35
2023-06-28T04:54:34.675Z,3.39
2023-06-28T04:55:34.687Z,3.33
2023-06-28T04:56:34.644Z,3.43
2023-06-28T04:57:34.650Z,3.51
2023-06-28T04:58:34.685Z,3.75
2023-06-28T04:59:34.716Z,3.84
2023-06-28T05:00:34.758Z,3.82
2023-06-28T05:01:34.788Z,4.09
2023-06-28T05:02:34.956Z,4.41
2023-06-28T05:03:34.896Z,4.49
2023-06-28T05:04:34.856Z,4.25
2023-06-28T05:05:34.913Z,4.29
2023-06-28T05:06:34.966Z,4.35
2023-06-28T05:07:35.164Z,4.35
2023-06-28T05:08:35.021Z,4.41
2023-06-28T05:09:35.085Z,4.42
2023-06-28T05:10:35.095Z,4.61
2023-06-28T05:11:35.057Z,4.64
2023-06-28T05:12:35.084Z,4.75
2023-06-28T05:13:35.105Z,4.75
2023-06-28T05:14:35.078Z,4.92
2023-06-28T05:15:35.086Z,4.89
2023-06-28T05:16:35.096Z,4.95
2023-06-28T05:17:35.149Z,4.86
2023-06-28T05:18:35.140Z,4.90
2023-06-28T05:19:35.163Z,4.96
2023-06-28T05:20:35.180Z,5.12
2023-06-28T05:21:35.160Z,5.44
2023-06-28T05:22:35.185Z,5.62
2023-06-28T05:23:35.203Z,5.83
2023-06-28T05:24:35.247Z,5.99
2023-06-28T05:25:35.293Z,6.31
2023-06-28T05:26:35.282Z,6.45
2023-06-28T05:27:35.367Z,6.39
2023-06-28T05:28:35.350Z,6.29
2023-06-28T05:29:35.338Z,6.49
2023-06-28T05:30:35.422Z,6.33
2023-06-28T05:31:35.438Z,6.55
2023-06-28T05:32:35.379Z,6.64
2023-06-28T05:33:35.329Z,6.78
2023-06-28T05:34:35.346Z,7.08
2023-06-28T05:35:35.314Z,7.35
2023-06-28T05:36:35.625Z,8.00
2023-06-28T05:37:35.345Z,8.92
2023-06-28T05:38:35.339Z,10.28
2023-06-28T05:39:35.334Z,11.02
2023-06-28T05:40:35.358Z,11.73
2023-06-28T05:41:35.621Z,12.38
2023-06-28T05:42:35.322Z,12.44
2023-06-28T05:43:35.374Z,13.01
2023-06-28T05:44:35.423Z,13.24
2023-06-28T05:45:36.461Z,13.15
2023-06-28T05:46:35.519Z,13.10
2023-06-28T05:47:35.557Z,12.80
2023-06-28T05:48:35.668Z,12.79
2023-06-28T05:49:35.611Z,12.76
2023-06-28T05:50:36.298Z,12.52
2023-06-28T05:51:36.197Z,12.06
2023-06-28T05:52:35.809Z,11.92
2023-06-28T05:53:35.810Z,11.50
2023-06-28T05:54:35.804Z,11.51
2023-06-28T05:55:35.841Z,11.12
2023-06-28T05:56:35.969Z,11.02
2023-06-28T05:57:35.928Z,11.31
2023-06-28T05:58:35.993Z,11.22
2023-06-28T05:59:36.007Z,11.26
2023-06-28T06:00:36.038Z,11.35
2023-06-28T06:01:36.064Z,11.41
2023-06-28T06:02:36.131Z,11.34
2023-06-28T06:03:36.216Z,11.27
2023-06-28T06:04:36.129Z,11.14
2023-06-28T06:05:36.079Z,10.48
2023-06-28T06:06:36.662Z,10.35
2023-06-28T06:07:36.168Z,9.87
2023-06-28T06:08:36.103Z,9.37
2023-06-28T06:09:36.170Z,9.44
2023-06-28T06:10:36.179Z,9.05
2023-06-28T06:11:36.129Z,8.93
2023-06-28T06:12:36.202Z,8.85
2023-06-28T06:13:36.177Z,8.60
2023-06-28T06:14:36.190Z,8.67
2023-06-28T06:15:36.211Z,8.48
2023-06-28T06:16:36.184Z,8.66
2023-06-28T06:17:36.223Z,8.61
2023-06-28T06:18:36.183Z,8.24
2023-06-28T06:19:36.212Z,8.35
2023-06-28T06:20:36.191Z,8.26
2023-06-28T06:21:36.165Z,8.24
2023-06-28T06:22:36.232Z,8.20
2023-06-28T06:23:36.205Z,8.09
2023-06-28T06:24:36.251Z,7.84
2023-06-28T06:25:36.301Z,7.86
2023-06-28T06:26:37.184Z,7.56
2023-06-28T06:27:38.184Z,7.55
2023-06-28T06:28:36.373Z,7.52
2023-06-28T06:29:36.466Z,7.43
2023-06-28T06:30:36.622Z,7.26
2023-06-28T06:31:36.570Z,7.53
2023-06-28T06:32:36.579Z,7.38
2023-06-28T06:33:36.600Z,7.52
2023-06-28T06:34:36.563Z,7.43
2023-06-28T06:35:36.592Z,7.30
2023-06-28T06:36:36.716Z,7.24
2023-06-28T06:37:36.626Z,7.31
2023-06-28T06:38:36.750Z,7.28
2023-06-28T06:39:36.661Z,7.32
2023-06-28T06:40:37.344Z,7.03
2023-06-28T06:41:36.669Z,7.10
2023-06-28T06:42:36.704Z,7.03
2023-06-28T06:43:36.922Z,6.97
2023-06-28T06:44:36.823Z,6.74
2023-06-28T06:45:36.725Z,6.69
2023-06-28T06:46:36.704Z,6.70
2023-06-28T06:47:36.763Z,6.50
2023-06-28T06:48:36.750Z,6.47
2023-06-28T06:49:36.743Z,6.31
2023-06-28T06:50:36.763Z,6.06
2023-06-28T06:51:37.703Z,6.05
2023-06-28T06:52:37.011Z,5.81
2023-06-28T06:53:37.726Z,5.71
2023-06-28T06:54:36.942Z,5.66
2023-06-28T06:55:36.922Z,5.66
2023-06-28T06:56:36.970Z,5.60
2023-06-28T06:57:36.987Z,5.47
2023-06-28T06:58:36.987Z,5.26
2023-06-28T06:59:37.007Z,5.24
2023-06-28T07:00:37.078Z,5.22
2023-06-28T07:01:37.089Z,5.23
2023-06-28T07:02:37.146Z,5.19
2023-06-28T07:03:37.161Z,5.05
2023-06-28T07:04:37.205Z,5.10
2023-06-28T07:05:37.195Z,5.07
2023-06-28T07:06:37.213Z,4.94
2023-06-28T07:07:37.418Z,4.93
2023-06-28T07:08:37.280Z,4.91
2023-06-28T07:09:37.733Z,4.88
2023-06-28T07:10:37.322Z,5.02
2023-06-28T07:11:37.324Z,5.14
2023-06-28T07:12:37.368Z,4.99
2023-06-28T07:13:37.371Z,4.94
2023-06-28T07:14:37.432Z,4.72
2023-06-28T07:15:37.458Z,4.72
2023-06-28T07:16:37.526Z,4.68
2023-06-28T07:17:37.645Z,4.73
2023-06-28T07:18:37.634Z,4.65
2023-06-28T07:19:37.674Z,4.68
2023-06-28T07:20:37.732Z,4.74
2023-06-28T07:21:37.742Z,4.59
2023-06-28T07:22:37.878Z,4.43
2023-06-28T07:23:37.870Z,4.55
2023-06-28T07:24:38.185Z,4.52
2023-06-28T07:25:38.795Z,4.45
2023-06-28T07:26:38.025Z,4.46
2023-06-28T07:27:38.116Z,4.42
2023-06-28T07:28:38.122Z,4.36
2023-06-28T07:29:38.197Z,4.42
2023-06-28T07:30:38.247Z,4.58
2023-06-28T07:31:38.352Z,4.39
2023-06-28T07:32:38.364Z,4.31
2023-06-28T07:33:38.408Z,4.23
2023-06-28T07:34:38.502Z,4.27
2023-06-28T07:35:38.554Z,4.18
2023-06-28T07:36:38.749Z,4.22
2023-06-28T07:37:38.615Z,4.24
2023-06-28T07:38:38.646Z,4.24
2023-06-28T07:39:38.883Z,4.22
2023-06-28T07:40:38.775Z,4.16
2023-06-28T07:41:39.193Z,4.20
2023-06-28T07:42:38.887Z,4.19
2023-06-28T07:43:38.862Z,4.14
2023-06-28T07:44:39.115Z,4.16
2023-06-28T07:45:38.947Z,4.14
2023-06-28T07:46:38.940Z,4.15
2023-06-28T07:47:40.826Z,4.12
2023-06-28T07:48:38.978Z,4.07
2023-06-28T07:49:38.967Z,4.01
2023-06-28T07:50:38.929Z,4.04
2023-06-28T07:51:39.309Z,4.01
2023-06-28T07:52:38.940Z,4.08
2023-06-28T07:53:38.924Z,4.04
2023-06-28T07:54:38.913Z,4.11
2023-06-28T07:55:39.404Z,4.10
2023-06-28T07:56:39.198Z,4.08
2023-06-28T07:57:38.874Z,3.83
2023-06-28T07:58:38.872Z,3.79
2023-06-28T07:59:38.900Z,3.61
2023-06-28T08:00:39.009Z,3.65
2023-06-28T08:01:38.987Z,3.53
2023-06-28T08:02:38.897Z,3.48
2023-06-28T08:03:38.887Z,3.47
2023-06-28T08:04:40.129Z,3.48
2023-06-28T08:05:38.849Z,3.62
2023-06-28T08:06:38.855Z,3.66
2023-06-28T08:07:38.885Z,3.60
2023-06-28T08:08:38.830Z,3.83
2023-06-28T08:09:38.802Z,3.90
2023-06-28T08:10:38.834Z,3.83
2023-06-28T08:11:38.805Z,3.88
2023-06-28T08:12:38.791Z,3.87
2023-06-28T08:13:38.800Z,3.87
2023-06-28T08:14:38.799Z,3.98
2023-06-28T08:15:40.519Z,3.90
2023-06-28T08:16:38.759Z,4.02
2023-06-28T08:17:38.758Z,4.02
2023-06-28T08:18:38.768Z,4.09
2023-06-28T08:19:38.739Z,4.23
2023-06-28T08:20:42.981Z,4.14
2023-06-28T08:21:38.735Z,4.14
2023-06-28T08:22:38.724Z,4.14
2023-06-28T08:23:38.710Z,3.90
2023-06-28T08:24:38.794Z,4.06
2023-06-28T08:25:38.763Z,4.01
2023-06-28T08:26:39.787Z,4.12
2023-06-28T08:27:38.685Z,4.12
2023-06-28T08:28:50.418Z,4.15
2023-06-28T08:29:39.655Z,4.08
2023-06-28T08:30:39.134Z,3.79
2023-06-28T08:31:38.796Z,3.76
2023-06-28T08:32:38.703Z,3.62
2023-06-28T08:33:39.115Z,3.51
2023-06-28T08:34:38.715Z,3.37
2023-06-28T08:35:38.632Z,3.30
2023-06-28T08:36:38.795Z,3.32
2023-06-28T08:37:38.674Z,3.13
2023-06-28T08:38:39.191Z,3.02
2023-06-28T08:39:38.770Z,3.05
2023-06-28T08:40:38.838Z,3.07
2023-06-28T08:41:39.197Z,3.07
2023-06-28T08:42:38.859Z,2.98
2023-06-28T08:43:38.891Z,3.01
2023-06-28T08:44:38.909Z,2.92
2023-06-28T08:45:38.953Z,2.91
2023-06-28T08:46:38.990Z,2.82
2023-06-28T08:47:39.099Z,2.82
2023-06-28T08:48:39.107Z,2.85
2023-06-28T08:49:39.052Z,2.92
2023-06-28T08:50:39.079Z,2.97
2023-06-28T08:51:39.821Z,3.05
2023-06-28T08:52:39.117Z,2.93
2023-06-28T08:53:39.132Z,2.78
2023-06-28T08:54:39.159Z,2.70
2023-06-28T08:55:40.514Z,2.69
2023-06-28T08:56:48.121Z,2.59
2023-06-28T08:57:40.204Z,2.59
2023-06-28T08:58:39.250Z,2.50
2023-06-28T08:59:39.222Z,2.52
2023-06-28T09:00:39.533Z,2.44
2023-06-28T09:01:39.171Z,2.46
2023-06-28T09:02:39.856Z,2.43
2023-06-28T09:03:39.248Z,2.43
2023-06-28T09:04:39.209Z,2.40
2023-06-28T09:05:39.376Z,2.29
2023-06-28T09:06:39.911Z,2.23
2023-06-28T09:07:40.266Z,2.29
2023-06-28T09:08:39.325Z,2.33
2023-06-28T09:09:39.365Z,2.26
2023-06-28T09:10:40.240Z,2.17
2023-06-28T09:11:39.460Z,2.16
2023-06-28T09:12:39.482Z,2.10
2023-06-28T09:13:39.478Z,2.07
2023-06-28T09:14:39.506Z,1.98
2023-06-28T09:15:39.750Z,1.93
2023-06-28T09:16:39.537Z,1.86
2023-06-28T09:17:39.631Z,1.77
2023-06-28T09:18:39.643Z,1.75
2023-06-28T09:19:39.782Z,1.68
2023-06-28T09:20:39.757Z,1.66
2023-06-28T09:21:39.796Z,1.62
2023-06-28T09:22:40.172Z,1.60
2023-06-28T09:23:39.856Z,1.56
2023-06-28T09:24:39.938Z,1.54
2023-06-28T09:25:40.094Z,1.66
2023-06-28T09:26:40.265Z,1.53
2023-06-28T09:27:40.131Z,1.55
2023-06-28T09:28:42.392Z,1.75
2023-06-28T09:29:40.291Z,2.03
2023-06-28T09:30:40.377Z,2.24
2023-06-28T09:31:41.271Z,2.30
2023-06-28T09:32:40.555Z,2.60
2023-06-28T09:33:40.566Z,2.84
2023-06-28T09:34:40.627Z,3.18
2023-06-28T09:35:41.094Z,3.56
2023-06-28T09:36:40.804Z,3.77
2023-06-28T09:37:40.810Z,3.68
2023-06-28T09:38:40.879Z,3.61
2023-06-28T09:39:40.862Z,3.48
2023-06-28T09:40:40.900Z,3.37
2023-06-28T09:41:41.311Z,3.42
2023-06-28T09:42:41.001Z,3.29
2023-06-28T09:43:41.054Z,3.11
2023-06-28T09:44:41.082Z,2.97
2023-06-28T09:45:41.444Z,2.72
2023-06-28T09:46:41.259Z,2.55
2023-06-28T09:47:41.336Z,2.29
2023-06-28T09:48:42.237Z,2.12
2023-06-28T09:49:41.269Z,2.00
2023-06-28T09:50:41.529Z,1.88
2023-06-28T09:51:41.447Z,1.81
2023-06-28T09:52:41.445Z,1.64
2023-06-28T09:53:41.481Z,1.57
2023-06-28T09:54:41.893Z,1.43
2023-06-28T09:55:41.895Z,1.37
2023-06-28T09:56:41.875Z,1.31
2023-06-28T09:57:41.718Z,1.23
2023-06-28T09:58:41.728Z,1.21
2023-06-28T09:59:41.821Z,1.13
2023-06-28T10:00:41.854Z,1.10
2023-06-28T10:01:41.892Z,1.00
2023-06-28T10:02:42.202Z,1.02
2023-06-28T10:03:42.144Z,0.93
2023-06-28T10:04:42.140Z,0.90
2023-06-28T10:05:42.295Z,0.90
2023-06-28T10:06:42.263Z,0.91
2023-06-28T10:07:42.218Z,0.94
2023-06-28T10:08:42.285Z,0.97
2023-06-28T10:09:42.366Z,1.00
2023-06-28T10:10:42.389Z,0.96
2023-06-28T10:11:42.402Z,0.93
2023-06-28T10:12:42.454Z,0.92
2023-06-28T10:13:42.560Z,0.92
2023-06-28T10:14:42.658Z,0.92
2023-06-28T10:15:42.886Z,0.90
2023-06-28T10:16:42.834Z,0.91
2023-06-28T10:17:43.280Z,0.88
2023-06-28T10:18:42.672Z,0.85
2023-06-28T10:19:42.773Z,0.87
2023-06-28T10:20:43.302Z,0.83
2023-06-28T10:21:42.944Z,0.81
2023-06-28T10:22:42.751Z,0.81
2023-06-28T10:23:42.747Z,0.76
2023-06-28T10:24:42.789Z,0.73
2023-06-28T10:25:46.053Z,0.73
2023-06-28T10:26:43.770Z,0.72
2023-06-28T10:27:42.799Z,0.72
2023-06-28T10:28:42.813Z,0.69
2023-06-28T10:29:42.783Z,0.66
2023-06-28T10:30:42.872Z,0.62
2023-06-28T10:31:43.441Z,0.60
2023-06-28T10:32:42.836Z,0.57
2023-06-28T10:33:42.804Z,0.55
2023-06-28T10:34:42.772Z,0.54
2023-06-28T10:35:42.902Z,0.53
2023-06-28T10:36:42.808Z,0.52
2023-06-28T10:37:43.282Z,0.50
2023-06-28T10:38:42.728Z,0.51
2023-06-28T10:39:42.744Z,0.51
2023-06-28T10:40:42.674Z,0.51
2023-06-28T10:41:42.738Z,0.51
2023-06-28T10:42:42.690Z,0.53
2023-06-28T10:43:43.258Z,0.51
2023-06-28T10:44:42.672Z,0.51
2023-06-28T10:45:42.828Z,0.51
2023-06-28T10:46:42.670Z,0.50
2023-06-28T10:47:43.351Z,0.51
2023-06-28T10:48:42.721Z,0.52
2023-06-28T10:49:42.638Z,0.50
2023-06-28T10:50:42.700Z,0.51
2023-06-28T10:51:42.604Z,0.50
2023-06-28T10:52:42.674Z,0.53
2023-06-28T10:53:42.649Z,0.51
2023-06-28T10:54:42.694Z,0.52
2023-06-28T10:55:42.739Z,0.53
2023-06-28T10:56:42.679Z,0.52
2023-06-28T10:57:42.577Z,0.50
2023-06-28T10:58:42.588Z,0.51
2023-06-28T10:59:42.584Z,0.51
2023-06-28T11:00:42.630Z,0.50
2023-06-28T11:01:42.655Z,0.51
2023-06-28T11:02:42.802Z,0.52
2023-06-28T11:03:42.656Z,0.52
2023-06-28T11:04:42.729Z,0.52
2023-06-28T11:05:42.690Z,0.52
2023-06-28T11:06:42.586Z,0.49
2023-06-28T11:07:42.782Z,0.49
2023-06-28T11:08:42.655Z,0.50
2023-06-28T11:09:42.612Z,0.50
2023-06-28T11:10:42.637Z,0.50
2023-06-28T11:11:42.660Z,0.50
2023-06-28T11:12:42.552Z,0.51
2023-06-28T11:13:42.579Z,0.50
2023-06-28T11:14:42.545Z,0.52
2023-06-28T11:15:42.859Z,0.54
2023-06-28T11:16:43.455Z,0.53
2023-06-28T11:17:42.812Z,0.54
2023-06-28T11:18:43.298Z,0.54
2023-06-28T11:19:42.719Z,0.55
2023-06-28T11:20:42.741Z,0.53
2023-06-28T11:21:43.299Z,0.53
2023-06-28T11:22:42.776Z,0.55
2023-06-28T11:23:42.729Z,0.53
2023-06-28T11:24:42.682Z,0.51
2023-06-28T11:25:42.900Z,0.54
2023-06-28T11:26:42.730Z,0.53
2023-06-28T11:27:42.697Z,0.54
2023-06-28T11:28:42.726Z,0.55
2023-06-28T11:29:42.736Z,0.55
2023-06-28T11:30:42.894Z,0.57
2023-06-28T11:31:42.711Z,0.56
2023-06-28T11:32:42.689Z,0.57
2023-06-28T11:33:42.659Z,0.54
2023-06-28T11:34:42.672Z,0.54
2023-06-28T11:35:42.985Z,0.52
2023-06-28T11:36:42.752Z,0.53
2023-06-28T11:37:42.823Z,0.54
2023-06-28T11:38:42.883Z,0.53
2023-06-28T11:39:42.857Z,0.55
2023-06-28T11:40:42.854Z,0.55
2023-06-28T11:41:42.883Z,0.54
2023-06-28T11:42:42.853Z,0.53
2023-06-28T11:43:42.860Z,0.50
2023-06-28T11:44:42.852Z,0.50
2023-06-28T11:45:43.098Z,0.52
2023-06-28T11:46:42.910Z,0.51
2023-06-28T11:47:42.948Z,0.50
2023-06-28T11:48:42.975Z,0.50
2023-06-28T11:49:43.043Z,0.51
2023-06-28T11:50:43.089Z,0.50
2023-06-28T11:51:43.138Z,0.51
2023-06-28T11:52:43.194Z,0.52
2023-06-28T11:53:43.265Z,0.53
2023-06-28T11:54:43.292Z,0.54
2023-06-28T11:55:43.612Z,0.52
2023-06-28T11:56:43.369Z,0.54
2023-06-28T11:57:43.359Z,0.52
2023-06-28T11:58:43.367Z,0.54
2023-06-28T11:59:43.435Z,0.52
2023-06-28T12:00:43.541Z,0.54
2023-06-28T12:01:43.544Z,0.54
2023-06-28T12:02:43.650Z,0.55
2023-06-28T12:03:43.761Z,0.50
2023-06-28T12:04:43.867Z,0.54
2023-06-28T12:05:44.107Z,0.52
2023-06-28T12:06:44.785Z,0.55
2023-06-28T12:07:44.041Z,0.53
2023-06-28T12:08:43.948Z,0.53
2023-06-28T12:09:44.010Z,0.54
2023-06-28T12:10:44.076Z,0.53
2023-06-28T12:11:44.356Z,0.55
2023-06-28T12:12:44.069Z,0.56
2023-06-28T12:13:44.055Z,0.56
2023-06-28T12:14:44.146Z,0.56
2023-06-28T12:15:44.274Z,0.56
2023-06-28T12:16:44.187Z,0.55
2023-06-28T12:17:44.270Z,0.57
2023-06-28T12:18:44.227Z,0.59
2023-06-28T12:19:44.299Z,0.60
2023-06-28T12:20:44.341Z,0.60
2023-06-28T12:21:44.401Z,0.61
2023-06-28T12:22:44.529Z,0.58
2023-06-28T12:23:44.441Z,0.59
2023-06-28T12:24:44.478Z,0.59
2023-06-28T12:25:44.683Z,0.57
2023-06-28T12:26:44.826Z,0.57
2023-06-28T12:27:44.566Z,0.57
2023-06-28T12:28:44.623Z,0.58
2023-06-28T12:29:44.719Z,0.58
2023-06-28T12:30:44.777Z,0.58
2023-06-28T12:31:44.852Z,0.57
2023-06-28T12:32:44.979Z,0.60
2023-06-28T12:33:44.974Z,0.60
2023-06-28T12:34:44.909Z,0.58
2023-06-28T12:35:44.932Z,0.60
2023-06-28T12:36:44.943Z,0.58
2023-06-28T12:37:44.905Z,0.57
2023-06-28T12:38:44.930Z,0.57
2023-06-28T12:39:44.950Z,0.58
2023-06-28T12:40:44.953Z,0.58
2023-06-28T12:41:45.383Z,0.61
2023-06-28T12:42:44.983Z,0.63
2023-06-28T12:43:45.060Z,0.64
2023-06-28T12:44:45.066Z,0.65
2023-06-28T12:45:45.158Z,0.64
2023-06-28T12:46:45.169Z,0.63
2023-06-28T12:47:45.261Z,0.65
2023-06-28T12:48:45.257Z,0.67
2023-06-28T12:49:45.282Z,0.71
2023-06-28T12:50:45.283Z,0.71
2023-06-28T12:51:45.314Z,0.70
2023-06-28T12:52:45.367Z,0.73
2023-06-28T12:53:45.427Z,0.75
2023-06-28T12:54:45.568Z,0.76
2023-06-28T12:55:45.530Z,0.73
2023-06-28T12:56:46.386Z,0.70
2023-06-28T12:57:45.647Z,0.72
2023-06-28T12:58:45.654Z,0.73
2023-06-28T12:59:45.655Z,0.74
2023-06-28T13:00:46.558Z,0.74
2023-06-28T13:01:45.857Z,0.72
2023-06-28T13:02:45.720Z,0.72
2023-06-28T13:03:45.748Z,0.71
2023-06-28T13:04:45.832Z,0.70
2023-06-28T13:05:45.835Z,0.71
2023-06-28T13:06:46.349Z,0.70
2023-06-28T13:07:45.948Z,0.72
2023-06-28T13:08:45.998Z,0.67
2023-06-28T13:09:46.052Z,0.67
2023-06-28T13:10:46.286Z,0.67
2023-06-28T13:11:46.176Z,0.69
2023-06-28T13:12:46.161Z,0.67
2023-06-28T13:13:46.231Z,0.67
2023-06-28T13:14:46.289Z,0.66
2023-06-28T13:15:46.407Z,0.66
2023-06-28T13:16:46.316Z,0.67
2023-06-28T13:17:46.326Z,0.71